La Porte, IN (46350)

6:53 AM CDT on September 04, 2015 (GMT -0500)
La Porte, IN | | Change Station
CLOSE
Current Station
Personal Weather Station
Location: La Porte, IN
Elevation: 820 ft
Nearby Weather Stations

Elev 820 ft 41.59 °N, 86.73 °W | Updated 5 seconds ago

Overcast
Overcast
68.3 °F
Feels Like 68.3 °F
N
0.0
Wind Variable Wind from North
Gusts 0.0 mph

Today
High -- | Low -- °F
--% Chance of Precip.
Yesterday
High -- | Low -- °F
Precip. -- in
6:15 AM 7:15 PM
Waning Gibbous, 60% visible
Pressure 30.00 in
Visibility 7.0 miles
Clouds Overcast 1000 ft
Dew Point 67 °F
Humidity 96%
Rainfall 0.00 in
Snow Depth Not available.
UV 0 out of 12
Pollen 9.10 out of 12
Air Quality Not available.
Flu Activity Not available.
METAR KMGC 041135Z AUTO 00000KT 7SM OVC010 19/19 A3000 RMK AO2
Pressure 30.00 in
Visibility 7.0 miles
Clouds Overcast 1000 ft
Dew Point 67 °F
Humidity 96%
Rainfall 0.00 in
Snow Depth Not available.
UV 0 out of 12
Pollen 9.10 out of 12
Air Quality Not available.
Flu Activity Not available.
METAR KMGC 041135Z AUTO 00000KT 7SM OVC010 19/19 A3000 RMK AO2

10-Day Weather Forecast

×

Almanac

Astronomy

Sep. 04, 2015 Rise Set
Actual Time
Civil Twilight
Nautical Twilight
Astronomical Twilight
Moon
Length of Visible Light
Length of Day
Tomorrow will be .
, % of the Moon is Illuminated

Today's Extremes

State Highs State Lows

Community

WunderPhotos

Upload Photos

1,852,157 photos uploaded!

WunderBlogs® & News

Nearby

Air Quality

  Air Quality AQ Index Pollutant
Not available.

Snow Depth

Station Depth Elevation

Earthquake Activity

City Distance Mag. Time & Date
Minimum magnitude displayed is 2.5.

Coastal Water Temperatures

Place Temperature

Stations

Nearby Weather Stations

Station Location Temp. Windchill Dew Point Humidity Wind Precip. Elev Updated Type